Time;durP1;ratioP1;P1;durP2;ratioP2;P2;SDS_P1;SDS_P2;PMS_P1;PMS_P2;Temp;Humidity;BMP_temperature;BMP_pressure;BME280_temperature;BME280_humidity;BME280_pressure;Samples;Min_cycle;Max_cycle;Signal;HPM_P1;HPM_P2
2023/10/17 00:00:39;;;;;;;5.97;4.10;;;8.70;99.90;;;;;;5115824;27;20042;-77
2023/10/17 00:03:06;;;;;;;6.65;4.38;;;8.70;99.90;;;;;;5115874;27;20383;-77
2023/10/17 00:05:32;;;;;;;7.88;4.57;;;8.60;99.90;;;;;;5116093;27;20070;-77
2023/10/17 00:08:00;;;;;;;7.93;4.45;;;8.60;99.90;;;;;;5115506;27;20085;-77
2023/10/17 00:10:31;;;;;;;9.45;4.72;;;8.60;99.90;;;;;;5115544;27;20094;-78
2023/10/17 00:13:08;;;;;;;7.32;4.68;;;8.60;99.90;;;;;;5115631;27;20103;-77
2023/10/17 00:15:37;;;;;;;9.43;4.38;;;8.60;99.90;;;;;;5115721;27;20039;-77
2023/10/17 00:18:14;;;;;;;7.70;4.43;;;8.50;99.90;;;;;;5115350;27;20130;-77
2023/10/17 00:20:40;;;;;;;7.55;5.07;;;8.40;99.90;;;;;;5114846;28;20075;-77
2023/10/17 00:23:07;;;;;;;6.65;4.88;;;8.50;99.90;;;;;;5115177;27;20116;-77
2023/10/17 00:25:33;;;;;;;5.95;4.72;;;8.40;99.90;;;;;;5115504;27;20035;-77
2023/10/17 00:27:59;;;;;;;8.93;5.18;;;8.40;99.90;;;;;;5115114;27;20078;-77
2023/10/17 00:30:29;;;;;;;7.50;5.75;;;8.40;99.90;;;;;;5115369;27;20066;-77
2023/10/17 00:32:55;;;;;;;8.30;4.70;;;8.40;99.90;;;;;;5115165;27;20565;-77
2023/10/17 00:35:25;;;;;;;8.23;4.68;;;8.30;99.90;;;;;;5115591;27;20129;-77
2023/10/17 00:37:56;;;;;;;6.47;4.88;;;8.30;99.90;;;;;;5115737;27;20047;-78
2023/10/17 00:40:34;;;;;;;6.30;4.75;;;8.30;99.90;;;;;;5115056;27;20075;-77
2023/10/17 00:43:04;;;;;;;6.15;4.93;;;8.20;99.90;;;;;;5115079;27;20051;-77
2023/10/17 00:45:32;;;;;;;8.27;4.72;;;8.30;99.90;;;;;;5098154;27;20133;-77
2023/10/17 00:47:59;;;;;;;6.32;4.50;;;8.30;99.90;;;;;;5115003;27;20039;-77
2023/10/17 00:50:26;;;;;;;7.45;5.47;;;8.30;99.90;;;;;;5114879;27;20039;-77
2023/10/17 00:52:52;;;;;;;7.43;4.60;;;8.20;99.90;;;;;;5098196;27;20448;-77
2023/10/17 00:55:18;;;;;;;5.93;4.63;;;8.20;99.90;;;;;;5098085;27;20100;-77
2023/10/17 00:57:45;;;;;;;7.22;4.30;;;8.10;99.90;;;;;;5114867;27;20053;-77
2023/10/17 01:00:22;;;;;;;7.00;4.38;;;8.00;99.90;;;;;;5114349;27;20508;-77
2023/10/17 01:02:51;;;;;;;5.18;3.60;;;8.00;99.90;;;;;;5097677;27;20505;-77
2023/10/17 01:05:17;;;;;;;4.95;3.90;;;8.00;99.90;;;;;;5114708;27;20043;-77
2023/10/17 01:07:43;;;;;;;4.75;3.45;;;8.00;99.90;;;;;;5114580;27;20035;-77
2023/10/17 01:10:10;;;;;;;7.53;3.70;;;8.10;99.90;;;;;;5114163;27;20401;-77
2023/10/17 01:12:52;;;;;;;5.00;3.70;;;8.10;99.90;;;;;;5114433;27;20477;-77
2023/10/17 01:15:28;;;;;;;4.72;3.78;;;8.10;99.90;;;;;;5114842;28;20156;-77
2023/10/17 01:17:54;;;;;;;4.40;3.45;;;8.10;99.90;;;;;;5114511;27;20043;-77
2023/10/17 01:20:20;;;;;;;8.63;3.88;;;8.10;99.90;;;;;;5114630;27;20038;-77
2023/10/17 01:22:47;;;;;;;4.45;3.85;;;8.10;99.90;;;;;;5114368;28;20061;-77
2023/10/17 01:25:26;;;;;;;7.25;3.70;;;8.20;99.90;;;;;;5097366;27;20046;-77
2023/10/17 01:27:52;;;;;;;6.20;4.38;;;8.10;99.90;;;;;;5114177;28;20039;-77
2023/10/17 01:30:19;;;;;;;4.05;3.35;;;8.20;99.90;;;;;;5114089;28;20091;-77
2023/10/17 01:32:46;;;;;;;7.28;4.40;;;8.20;99.90;;;;;;5114215;28;20031;-77
2023/10/17 01:35:12;;;;;;;5.22;4.68;;;8.30;99.90;;;;;;5114673;28;20432;-77
2023/10/17 01:37:39;;;;;;;9.73;4.55;;;8.20;99.90;;;;;;5114415;28;20043;-77
2023/10/17 01:40:09;;;;;;;7.70;5.47;;;8.20;99.90;;;;;;5114406;28;20125;-77
2023/10/17 01:42:35;;;;;;;6.88;5.50;;;8.30;99.90;;;;;;5114348;28;20043;-77
2023/10/17 01:45:01;;;;;;;5.82;4.68;;;8.20;99.90;;;;;;5097294;28;20039;-77
2023/10/17 01:47:26;;;;;;;5.82;4.82;;;8.30;99.90;;;;;;5114353;28;20039;-77
2023/10/17 01:49:52;;;;;;;5.03;3.95;;;8.30;99.90;;;;;;5114061;28;20036;-77
2023/10/17 01:52:18;;;;;;;5.93;4.32;;;8.20;99.90;;;;;;5132265;28;20043;-77
2023/10/17 01:54:47;;;;;;;7.72;5.63;;;8.20;99.90;;;;;;5114155;28;20092;-77
2023/10/17 01:57:13;;;;;;;8.15;4.20;;;8.20;99.90;;;;;;5114016;28;20122;-77
2023/10/17 01:59:39;;;;;;;5.53;4.35;;;8.20;99.90;;;;;;5113984;28;20130;-77
2023/10/17 02:02:04;;;;;;;9.52;4.72;;;8.20;99.90;;;;;;5113843;28;20039;-77
2023/10/17 02:04:34;;;;;;;7.55;4.65;;;8.20;99.90;;;;;;5114219;28;20123;-77
2023/10/17 02:07:00;;;;;;;7.00;4.75;;;8.20;99.90;;;;;;5132300;28;20039;-77
2023/10/17 02:12:00;;;;;;;9.85;5.55;;;8.20;99.90;;;;;;5114071;28;20055;-77
2023/10/17 02:14:26;;;;;;;5.82;5.03;;;8.20;99.90;;;;;;5114245;28;20057;-77
2023/10/17 02:16:52;;;;;;;7.38;5.22;;;8.20;99.90;;;;;;5114171;28;20046;-77
2023/10/17 02:19:31;;;;;;;6.68;4.68;;;8.20;99.90;;;;;;5096673;28;20075;-77
2023/10/17 02:22:01;;;;;;;7.95;5.28;;;8.10;99.90;;;;;;5113650;28;20402;-78
2023/10/17 02:24:29;;;;;;;7.43;5.45;;;8.10;99.90;;;;;;5113876;28;20620;-77
2023/10/17 02:26:55;;;;;;;9.63;5.47;;;8.10;99.90;;;;;;5096880;28;20498;-77
2023/10/17 02:29:29;;;;;;;10.35;5.70;;;8.10;99.90;;;;;;5113675;28;20039;-77
2023/10/17 02:31:55;;;;;;;;;;;8.10;99.90;;;;;;5114428;28;20552;-77
2023/10/17 02:34:29;;;;;;;7.68;4.90;;;8.00;99.90;;;;;;5132217;28;19919;-77
2023/10/17 02:36:55;;;;;;;7.10;4.97;;;7.90;99.90;;;;;;5097010;28;20074;-77
2023/10/17 02:39:21;;;;;;;8.02;5.00;;;7.90;99.90;;;;;;5113730;28;20105;-77
2023/10/17 02:41:57;;;;;;;9.35;5.53;;;7.90;99.90;;;;;;5113516;28;20051;-77
2023/10/17 02:44:24;;;;;;;11.10;5.35;;;7.80;99.90;;;;;;5114540;27;20039;-77
2023/10/17 02:46:50;;;;;;;8.18;5.25;;;7.80;99.90;;;;;;5100266;27;20046;-77
2023/10/17 02:49:16;;;;;;;7.60;5.30;;;7.80;99.90;;;;;;5116964;27;20046;-76
2023/10/17 02:51:45;;;;;;;8.02;5.32;;;7.80;99.90;;;;;;5135489;27;20051;-76
2023/10/17 02:54:16;;;;;;;7.53;4.40;;;7.80;99.90;;;;;;5117013;27;20413;-76
2023/10/17 02:56:51;;;;;;;7.30;5.07;;;7.80;99.90;;;;;;5116955;27;20053;-76
2023/10/17 02:59:17;;;;;;;6.57;4.60;;;7.70;99.90;;;;;;5116825;27;20114;-76
2023/10/17 03:01:43;;;;;;;10.65;5.22;;;7.70;99.90;;;;;;5135239;27;20146;-76
2023/10/17 03:04:17;;;;;;;8.48;5.55;;;7.70;99.90;;;;;;5116968;27;20035;-76
2023/10/17 03:06:47;;;;;;;;;;;7.60;99.90;;;;;;5117580;27;20045;-76
2023/10/17 03:09:22;;;;;;;6.95;4.45;;;7.60;99.90;;;;;;5116879;27;19915;-77
2023/10/17 03:12:06;;;;;;;6.38;4.35;;;7.50;99.90;;;;;;5116592;27;20035;-77
2023/10/17 03:15:18;;;;;;;7.88;5.03;;;7.60;99.90;;;;;;5116985;27;20039;-77
2023/10/17 03:17:27;;;;;;;6.45;4.70;;;7.50;99.90;;;;;;5116558;27;20053;-76
2023/10/17 03:19:53;;;;;;;5.35;4.38;;;7.50;99.90;;;;;;5135094;27;20046;-76
2023/10/17 03:22:24;;;;;;;7.53;4.53;;;7.50;99.90;;;;;;5116267;27;20043;-76
2023/10/17 03:24:53;;;;;;;5.45;4.10;;;7.40;99.90;;;;;;5116619;27;20039;-76
2023/10/17 03:27:37;;;;;;;6.15;4.65;;;7.40;99.90;;;;;;5116485;27;20074;-76
2023/10/17 03:30:06;;;;;;;;;;;7.40;99.90;;;;;;5099669;27;20118;-76
2023/10/17 03:32:41;;;;;;;6.95;4.47;;;7.40;99.90;;;;;;5116440;27;19989;-76
2023/10/17 03:35:20;;;;;;;4.93;4.20;;;7.30;99.90;;;;;;5116728;27;20046;-76
2023/10/17 03:37:45;;;;;;;5.93;3.97;;;7.30;99.90;;;;;;5116519;27;20039;-76
2023/10/17 03:42:55;;;;;;;8.02;3.67;;;7.20;99.90;;;;;;5116105;27;20055;-76
2023/10/17 03:47:56;;;;;;;4.50;3.50;;;7.20;99.90;;;;;;5116855;27;20047;-76
2023/10/17 03:50:36;;;;;;;5.45;3.70;;;7.10;99.90;;;;;;5116454;27;20039;-76
2023/10/17 03:53:06;;;;;;;5.63;4.00;;;7.10;99.90;;;;;;5116316;27;20088;-78
2023/10/17 03:55:35;;;;;;;7.63;4.28;;;7.10;99.90;;;;;;5115385;28;20089;-78
2023/10/17 03:58:02;;;;;;;5.38;4.25;;;7.10;99.90;;;;;;5115712;27;20043;-78
2023/10/17 04:00:33;;;;;;;5.68;3.95;;;7.10;99.90;;;;;;5099096;27;20447;-78
2023/10/17 04:03:00;;;;;;;7.82;4.50;;;7.10;99.90;;;;;;5134190;27;20039;-78
2023/10/17 04:05:28;;;;;;;5.60;3.75;;;7.10;99.90;;;;;;5115744;27;20043;-78
2023/10/17 04:07:54;;;;;;;6.13;4.20;;;7.10;99.90;;;;;;5115629;27;20063;-78
2023/10/17 04:10:20;;;;;;;6.55;4.00;;;7.10;99.90;;;;;;5115663;27;20043;-78
2023/10/17 04:12:54;;;;;;;5.43;4.18;;;7.10;99.90;;;;;;5115806;27;20034;-78
2023/10/17 04:15:21;;;;;;;5.43;4.55;;;7.10;99.90;;;;;;5115893;27;20058;-78
2023/10/17 04:17:47;;;;;;;10.15;4.30;;;7.20;99.90;;;;;;5115481;27;20038;-77
2023/10/17 04:20:13;;;;;;;5.82;4.57;;;7.20;99.90;;;;;;5115214;27;20050;-78
2023/10/17 04:22:39;;;;;;;7.20;4.32;;;7.20;99.90;;;;;;5115405;27;20043;-78
2023/10/17 04:25:19;;;;;;;5.00;3.53;;;7.20;99.90;;;;;;5115516;27;20038;-78
2023/10/17 04:27:54;;;;;;;4.93;3.10;;;7.20;99.90;;;;;;5115190;27;20083;-78
2023/10/17 04:30:29;;;;;;;4.30;3.85;;;7.30;99.90;;;;;;5115267;27;20058;-78
2023/10/17 04:33:08;;;;;;;5.90;3.80;;;7.20;99.90;;;;;;5115299;27;20050;-78
2023/10/17 04:35:35;;;;;;;4.93;4.30;;;7.30;99.90;;;;;;5115297;27;20112;-78
2023/10/17 04:41:17;;;;;;;7.78;4.63;;;7.30;99.90;;;;;;5092799;27;20043;-79
2023/10/17 04:43:55;;;;;;;10.23;5.72;;;7.30;99.90;;;;;;5115332;27;20383;-79
2023/10/17 04:46:29;;;;;;;9.23;5.13;;;7.30;99.90;;;;;;5098066;27;20035;-78
2023/10/17 04:49:04;;;;;;;;;;;7.30;99.90;;;;;;5115664;27;20039;-78
2023/10/17 04:51:38;;;;;;;6.80;5.28;;;7.30;99.90;;;;;;5114679;27;20440;-79
2023/10/17 04:54:22;;;;;;;7.40;5.30;;;7.30;99.90;;;;;;5133395;27;20057;-78
2023/10/17 04:56:59;;;;;;;8.40;5.95;;;7.40;99.90;;;;;;5115107;27;20046;-79
2023/10/17 05:07:27;;;;;;;;;;;7.40;99.90;;;;;;5114714;27;20047;-79
2023/10/17 06:18:27;;;;;;;10.02;5.45;;;7.90;99.90;;;;;;5113992;27;20129;-78
2023/10/17 06:24:06;;;;;;;13.52;6.50;;;7.80;99.90;;;;;;5118190;27;20047;-79
2023/10/17 06:34:19;;;;;;;9.40;5.88;;;8.00;99.90;;;;;;5117840;27;20050;-79
2023/10/17 06:36:50;;;;;;;9.75;6.07;;;8.00;99.90;;;;;;5117904;27;20399;-79
2023/10/17 06:39:17;;;;;;;10.82;6.00;;;8.00;99.90;;;;;;5100464;27;20042;-79
2023/10/17 06:41:45;;;;;;;9.52;5.90;;;8.10;99.90;;;;;;5117604;27;20040;-78
2023/10/17 06:44:16;;;;;;;8.35;5.63;;;8.10;99.90;;;;;;5118015;27;20088;-79
2023/10/17 06:46:48;;;;;;;7.03;5.03;;;8.10;99.90;;;;;;5119083;27;20528;-80
2023/10/17 06:53:02;;;;;;;9.75;5.63;;;8.20;99.90;;;;;;5117286;27;20047;-78
2023/10/17 06:54:54;;;;;;;8.50;5.35;;;8.20;99.90;;;;;;5099802;27;20078;-79
2023/10/17 06:57:19;;;;;;;13.32;5.80;;;8.10;99.90;;;;;;5116431;27;20074;-78
2023/10/17 06:59:52;;;;;;;10.18;5.80;;;8.10;99.90;;;;;;5111208;27;20067;-78
2023/10/17 07:02:28;;;;;;;10.68;5.88;;;8.10;99.90;;;;;;5105606;27;20043;-77
2023/10/17 07:04:56;;;;;;;8.63;5.50;;;8.20;99.90;;;;;;5102441;28;20093;-77
2023/10/17 07:07:23;;;;;;;8.68;5.60;;;8.20;99.90;;;;;;5099818;27;20498;-78
2023/10/17 07:09:52;;;;;;;9.70;5.68;;;8.20;99.90;;;;;;5108447;27;20042;-78
2023/10/17 07:12:20;;;;;;;8.10;5.70;;;8.30;99.90;;;;;;5116934;27;20091;-79
2023/10/17 07:14:49;;;;;;;12.32;6.60;;;8.30;99.90;;;;;;5117068;27;20043;-79
2023/10/17 07:17:28;;;;;;;10.45;5.63;;;8.40;99.90;;;;;;5117014;27;20046;-78
2023/10/17 07:20:01;;;;;;;7.20;4.60;;;8.40;99.90;;;;;;5116644;27;20497;-78
2023/10/17 07:22:35;;;;;;;8.65;4.72;;;8.50;99.90;;;;;;5099436;27;20509;-79
2023/10/17 07:25:02;;;;;;;9.18;5.82;;;8.50;99.90;;;;;;5116671;27;20085;-78
2023/10/17 07:27:33;;;;;;;9.70;4.75;;;8.50;99.90;;;;;;5099137;27;20035;-78
2023/10/17 07:32:45;;;;;;;11.18;5.80;;;8.60;99.90;;;;;;5074789;27;20784;-79
2023/10/17 07:35:16;;;;;;;9.93;4.88;;;8.70;99.90;;;;;;5116977;27;20035;-78
2023/10/17 07:37:53;;;;;;;18.95;6.82;;;8.70;99.90;;;;;;5116581;27;20035;-78
2023/10/17 07:40:31;;;;;;;9.00;5.30;;;8.80;99.90;;;;;;5117068;27;20555;-78
2023/10/17 07:43:00;;;;;;;11.80;5.63;;;8.90;99.90;;;;;;5116995;27;20046;-78
2023/10/17 07:45:38;;;;;;;7.93;5.00;;;9.00;99.90;;;;;;5116464;27;20372;-78
2023/10/17 07:48:21;;;;;;;9.02;5.55;;;9.10;99.90;;;;;;5135861;27;20120;-80
2023/10/17 07:50:49;;;;;;;15.32;6.18;;;9.10;99.90;;;;;;5116601;27;20035;-79
2023/10/17 07:53:19;;;;;;;7.90;5.13;;;9.20;99.90;;;;;;5116342;27;20035;-78
2023/10/17 07:55:51;;;;;;;9.65;6.97;;;9.30;99.90;;;;;;5115498;27;20035;-77
2023/10/17 07:58:17;;;;;;;10.87;6.33;;;9.30;99.90;;;;;;5098759;27;20513;-76
2023/10/17 08:00:48;;;;;;;10.90;6.78;;;9.30;99.90;;;;;;5115550;27;20047;-78
2023/10/17 08:03:14;;;;;;;7.35;5.78;;;9.30;99.90;;;;;;5115637;27;20065;-77
2023/10/17 08:06:04;;;;;;;9.10;5.78;;;9.40;99.90;;;;;;5107233;27;20061;-77
2023/10/17 08:08:33;;;;;;;7.70;5.53;;;9.40;99.90;;;;;;5115787;27;20051;-77
2023/10/17 08:11:06;;;;;;;10.95;5.68;;;9.50;99.90;;;;;;5115724;27;20043;-77
2023/10/17 08:13:34;;;;;;;10.73;5.50;;;9.60;99.90;;;;;;5115714;27;20054;-77
2023/10/17 08:16:10;;;;;;;18.02;6.75;;;9.60;99.90;;;;;;5115463;27;20046;-77
2023/10/17 08:18:42;;;;;;;9.48;5.72;;;9.70;99.90;;;;;;5115431;27;20047;-77
2023/10/17 08:23:52;;;;;;;9.63;5.55;;;9.80;99.90;;;;;;5115279;27;20154;-77
2023/10/17 08:26:18;;;;;;;11.63;5.18;;;10.00;99.90;;;;;;5112970;27;20631;-77
2023/10/17 08:36:42;;;;;;;8.57;4.15;;;10.10;99.90;;;;;;5112790;28;20055;-70
2023/10/17 08:39:31;;;;;;;11.70;5.05;;;10.10;99.90;;;;;;5112025;28;20441;-70
2023/10/17 08:42:14;;;;;;;8.43;4.70;;;10.10;99.90;;;;;;5112342;28;20187;-70
2023/10/17 08:44:47;;;;;;;7.10;4.63;;;10.30;99.90;;;;;;5111833;28;20047;-70
2023/10/17 08:47:16;;;;;;;9.05;4.78;;;10.60;99.90;;;;;;5112886;28;20272;-68
2023/10/17 08:49:48;;;;;;;9.68;4.95;;;10.70;99.90;;;;;;5112527;28;20075;-68
2023/10/17 08:52:27;;;;;;;8.98;5.32;;;11.00;99.90;;;;;;5125998;27;20035;-67
2023/10/17 08:54:53;;;;;;;9.27;4.45;;;11.30;99.90;;;;;;5132079;27;20394;-70
2023/10/17 08:57:20;;;;;;;9.85;4.75;;;11.30;99.90;;;;;;5133080;27;20043;-69
2023/10/17 09:02:32;;;;;;;9.13;3.70;;;11.60;99.90;;;;;;5128641;27;20039;-70
2023/10/17 09:05:05;;;;;;;5.07;2.95;;;11.60;99.90;;;;;;5132377;27;20035;-70
2023/10/17 09:07:42;;;;;;;;;;;11.70;99.90;;;;;;5131881;27;20031;-70
2023/10/17 09:10:36;;;;;;;7.20;2.22;;;11.70;99.90;;;;;;5132366;27;20524;-70
2023/10/17 09:13:52;;;;;;;2.90;1.60;;;11.70;99.90;;;;;;5132676;27;20035;-70
2023/10/17 09:16:13;;;;;;;2.38;1.05;;;11.90;99.90;;;;;;5130588;27;20047;-71
2023/10/17 09:18:48;;;;;;;3.17;1.35;;;11.80;99.90;;;;;;5132475;27;20035;-70
2023/10/17 09:21:20;;;;;;;5.78;1.63;;;11.80;99.90;;;;;;5132350;27;20398;-70
2023/10/17 09:23:47;;;;;;;2.75;1.40;;;11.90;99.90;;;;;;5132829;27;20043;-70
2023/10/17 09:26:19;;;;;;;4.68;1.80;;;11.90;99.90;;;;;;5132579;27;20056;-70
2023/10/17 09:28:47;;;;;;;5.30;1.80;;;12.00;99.90;;;;;;5131611;27;20494;-70
2023/10/17 09:31:15;;;;;;;6.20;2.00;;;11.90;99.90;;;;;;5132015;27;20042;-70
2023/10/17 09:33:45;;;;;;;4.20;2.20;;;12.00;99.90;;;;;;5132276;28;20099;-70
2023/10/17 09:36:12;;;;;;;5.38;2.15;;;12.10;99.90;;;;;;5132868;27;20051;-70
2023/10/17 09:38:45;;;;;;;5.20;2.30;;;12.10;99.90;;;;;;5132617;27;20035;-71
2023/10/17 09:41:18;;;;;;;4.97;2.10;;;12.20;99.90;;;;;;5132098;27;20647;-70
2023/10/17 09:43:46;;;;;;;4.68;2.03;;;12.00;99.90;;;;;;5132698;27;20035;-70
2023/10/17 09:46:15;;;;;;;9.63;2.60;;;12.10;99.90;;;;;;5132808;27;20110;-70
2023/10/17 09:48:48;;;;;;;7.82;3.00;;;12.10;99.90;;;;;;5132630;27;20383;-70
2023/10/17 09:51:27;;;;;;;6.47;2.50;;;12.00;99.90;;;;;;5131299;28;20133;-72
2023/10/17 09:53:54;;;;;;;3.45;2.20;;;12.00;99.90;;;;;;5133174;27;20107;-72
2023/10/17 09:56:29;;;;;;;3.45;1.92;;;11.90;99.90;;;;;;5135697;27;20035;-72
2023/10/17 09:59:02;;;;;;;7.93;2.63;;;11.80;99.90;;;;;;5135400;27;20039;-72
2023/10/17 10:01:29;;;;;;;;;;;11.80;99.90;;;;;;5136873;27;20042;-72
2023/10/17 10:03:56;;;;;;;3.55;2.20;;;11.70;99.90;;;;;;5135304;27;20006;-71
2023/10/17 10:06:27;;;;;;;6.30;2.65;;;11.70;99.90;;;;;;5135606;27;20035;-71
2023/10/17 10:08:57;;;;;;;6.15;2.30;;;11.80;99.90;;;;;;5135141;27;20616;-72
2023/10/17 10:11:53;;;;;;;6.47;2.38;;;11.80;99.90;;;;;;5135201;27;20125;-72
2023/10/17 10:14:30;;;;;;;4.45;2.22;;;11.70;99.90;;;;;;5136331;27;20039;-71
2023/10/17 10:16:59;;;;;;;2.85;1.88;;;11.80;99.90;;;;;;5135114;27;20046;-71
2023/10/17 10:19:46;;;;;;;7.18;2.67;;;11.70;99.90;;;;;;5136290;27;20039;-71
2023/10/17 10:22:16;;;;;;;5.82;1.88;;;11.70;99.90;;;;;;5134727;27;20446;-72
2023/10/17 10:24:43;;;;;;;5.28;1.73;;;11.70;99.90;;;;;;5135978;27;20058;-71
2023/10/17 10:27:15;;;;;;;4.18;2.05;;;11.70;99.90;;;;;;5136279;27;20039;-72
2023/10/17 10:29:47;;;;;;;8.60;1.70;;;11.80;99.90;;;;;;5135576;27;20039;-71
2023/10/17 10:32:25;;;;;;;5.47;1.45;;;11.70;99.90;;;;;;5122975;27;20027;-71
2023/10/17 10:34:52;;;;;;;5.75;1.65;;;11.60;99.90;;;;;;5134346;27;20062;-72
2023/10/17 10:37:20;;;;;;;4.28;1.52;;;11.60;99.90;;;;;;5135655;27;20087;-71
2023/10/17 10:40:26;;;;;;;1.70;1.55;;;11.60;99.90;;;;;;5135888;27;20110;-72
2023/10/17 10:42:53;;;;;;;4.15;1.58;;;11.60;99.90;;;;;;5055469;28;20048;-71
2023/10/17 10:45:36;;;;;;;3.88;1.25;;;11.60;99.90;;;;;;5072355;28;20561;-71
2023/10/17 10:48:09;;;;;;;3.17;1.52;;;11.60;99.90;;;;;;5101906;27;20104;-71
2023/10/17 10:50:35;;;;;;;4.88;2.55;;;11.60;99.90;;;;;;5134249;27;20067;-72
2023/10/17 10:53:03;;;;;;;6.55;1.88;;;11.60;99.90;;;;;;5135858;27;20119;-71
2023/10/17 10:55:30;;;;;;;3.05;1.63;;;11.60;99.90;;;;;;5134408;27;20501;-71
2023/10/17 10:57:59;;;;;;;2.17;1.50;;;11.60;99.90;;;;;;5135078;27;20050;-72
2023/10/17 11:00:25;;;;;;;3.92;1.70;;;11.70;99.90;;;;;;5135174;27;20043;-72
2023/10/17 11:02:51;;;;;;;2.88;1.52;;;11.70;99.90;;;;;;5135406;27;20082;-72
2023/10/17 11:05:17;;;;;;;4.75;1.80;;;11.70;99.90;;;;;;5133721;27;20059;-71
2023/10/17 11:07:44;;;;;;;2.03;1.30;;;11.70;99.90;;;;;;5135438;27;20039;-71
2023/10/17 11:10:11;;;;;;;4.03;1.50;;;11.70;99.90;;;;;;5135114;27;20042;-72
2023/10/17 11:12:37;;;;;;;5.28;1.80;;;11.70;99.90;;;;;;5133992;27;20041;-71
2023/10/17 11:15:19;;;;;;;3.88;2.08;;;11.70;99.90;;;;;;5135160;27;20490;-71
2023/10/17 11:17:45;;;;;;;2.70;1.10;;;11.70;99.90;;;;;;5135333;27;20092;-71
2023/10/17 11:20:14;;;;;;;4.63;2.08;;;11.80;99.90;;;;;;5134887;27;20032;-72
2023/10/17 11:22:42;;;;;;;4.82;1.65;;;11.80;99.90;;;;;;5133892;27;20035;-72
2023/10/17 11:25:31;;;;;;;2.15;1.42;;;11.80;99.90;;;;;;5133689;27;20085;-72
2023/10/17 11:28:00;;;;;;;4.22;1.35;;;11.70;99.90;;;;;;5133805;27;20437;-72
2023/10/17 11:30:33;;;;;;;4.65;1.40;;;11.70;99.90;;;;;;5128357;27;20453;-72
2023/10/17 11:33:06;;;;;;;4.70;1.73;;;11.80;99.90;;;;;;5134834;27;20383;-72
2023/10/17 11:35:34;;;;;;;4.63;1.77;;;11.80;99.90;;;;;;5134687;27;20043;-72
2023/10/17 11:38:00;;;;;;;2.28;1.38;;;11.80;99.90;;;;;;5133692;27;20091;-72
2023/10/17 11:40:47;;;;;;;3.50;1.35;;;11.80;99.90;;;;;;5133109;27;20121;-72
2023/10/17 11:43:21;;;;;;;3.38;1.60;;;11.80;99.90;;;;;;5134601;27;20039;-72
2023/10/17 11:45:47;;;;;;;3.33;1.30;;;11.80;99.90;;;;;;5133648;27;20047;-72
2023/10/17 11:48:27;;;;;;;3.78;1.40;;;11.80;99.90;;;;;;5133263;27;20035;-71
2023/10/17 11:51:28;;;;;;;5.40;2.03;;;11.80;99.90;;;;;;5133079;27;20050;-71
2023/10/17 11:54:03;;;;;;;3.70;1.75;;;11.80;99.90;;;;;;5123573;27;20047;-71
2023/10/17 11:56:32;;;;;;;2.97;1.48;;;11.80;99.90;;;;;;5134326;27;20097;-71
2023/10/17 11:59:01;;;;;;;3.50;1.60;;;11.90;99.90;;;;;;5134419;27;20038;-71
2023/10/17 12:01:27;;;;;;;1.85;1.40;;;11.90;99.90;;;;;;5132859;27;20039;-72
2023/10/17 12:03:59;;;;;;;2.15;1.90;;;11.90;99.90;;;;;;5134297;27;20406;-72
2023/10/17 12:06:26;;;;;;;5.22;1.60;;;11.90;99.90;;;;;;5134376;27;20046;-71
2023/10/17 12:08:53;;;;;;;4.38;1.80;;;11.90;99.90;;;;;;5134023;27;20093;-72
2023/10/17 12:11:19;;;;;;;4.28;1.60;;;12.00;99.90;;;;;;5134127;27;20175;-72
2023/10/17 12:13:46;;;;;;;4.63;1.73;;;12.00;99.90;;;;;;5134344;27;20537;-72
2023/10/17 12:16:11;;;;;;;5.20;2.05;;;12.10;99.90;;;;;;5134036;27;20070;-72
2023/10/17 12:18:37;;;;;;;3.58;1.55;;;12.00;99.90;;;;;;5133152;27;20077;-72
2023/10/17 12:21:04;;;;;;;2.75;1.80;;;11.90;99.90;;;;;;5133825;27;20035;-72
2023/10/17 12:23:30;;;;;;;3.08;1.30;;;12.10;99.90;;;;;;5115290;27;20043;-71
2023/10/17 12:26:01;;;;;;;3.30;1.63;;;12.10;99.90;;;;;;5133997;27;20031;-72
2023/10/17 12:28:27;;;;;;;7.40;1.80;;;12.10;99.90;;;;;;5133765;27;20070;-72
2023/10/17 12:30:53;;;;;;;3.13;1.38;;;12.10;99.90;;;;;;5133632;27;20518;-72
2023/10/17 12:33:23;;;;;;;4.07;1.55;;;12.10;99.90;;;;;;5132679;27;20039;-71
2023/10/17 12:35:50;;;;;;;4.63;1.33;;;12.10;99.90;;;;;;5133591;27;20123;-71
2023/10/17 12:38:33;;;;;;;8.98;1.58;;;12.10;99.90;;;;;;5149754;27;20419;-71
2023/10/17 12:40:58;;;;;;;2.13;1.50;;;12.10;99.90;;;;;;5124443;27;20040;-71
2023/10/17 12:43:24;;;;;;;3.13;1.27;;;12.20;99.90;;;;;;5129805;27;20027;-71
2023/10/17 12:45:50;;;;;;;3.20;1.52;;;12.20;99.90;;;;;;5130084;27;20043;-71
2023/10/17 12:48:16;;;;;;;2.83;1.50;;;12.10;99.90;;;;;;5128630;28;20039;-71
2023/10/17 12:50:44;;;;;;;3.88;1.38;;;12.20;99.90;;;;;;5129535;27;20680;-71
2023/10/17 12:53:11;;;;;;;1.42;1.15;;;12.20;99.90;;;;;;5128605;27;20053;-71
2023/10/17 12:55:38;;;;;;;5.28;1.27;;;12.30;99.90;;;;;;5129883;27;20122;-71
2023/10/17 12:58:18;;;;;;;4.40;1.70;;;12.30;99.90;;;;;;5129710;27;20085;-71
2023/10/17 13:00:47;;;;;;;2.70;1.30;;;12.30;99.90;;;;;;5128341;27;20074;-71
2023/10/17 13:03:13;;;;;;;3.85;1.20;;;12.30;99.90;;;;;;5129594;27;20046;-71
2023/10/17 13:05:39;;;;;;;2.35;1.10;;;12.30;99.90;;;;;;5129938;27;20399;-71
2023/10/17 13:08:04;;;;;;;3.40;0.95;;;12.20;99.90;;;;;;5129457;27;20068;-71
2023/10/17 13:10:31;;;;;;;2.80;0.85;;;12.30;99.90;;;;;;5129278;27;20060;-71
2023/10/17 13:12:58;;;;;;;1.45;0.60;;;12.30;99.90;;;;;;5128220;28;20050;-71
2023/10/17 13:15:24;;;;;;;2.13;0.95;;;12.30;99.90;;;;;;5129475;27;20035;-71
2023/10/17 13:17:54;;;;;;;2.22;0.80;;;12.30;99.90;;;;;;5129181;27;20047;-71
2023/10/17 13:20:28;;;;;;;3.03;0.82;;;12.30;99.90;;;;;;5129369;27;20043;-72
2023/10/17 13:22:59;;;;;;;1.25;0.88;;;12.30;99.90;;;;;;5111157;28;20240;-71
2023/10/17 13:25:24;;;;;;;1.67;0.90;;;12.20;99.90;;;;;;5128151;28;20400;-71
2023/10/17 13:27:50;;;;;;;1.33;0.75;;;12.30;99.90;;;;;;5129076;27;20039;-71
2023/10/17 13:30:16;;;;;;;4.97;0.90;;;12.30;99.90;;;;;;5127475;28;20031;-71
2023/10/17 13:32:41;;;;;;;2.53;1.00;;;12.20;99.90;;;;;;5129217;27;20053;-71
2023/10/17 13:35:07;;;;;;;2.67;0.85;;;12.30;99.90;;;;;;5128985;27;20115;-72
2023/10/17 13:37:34;;;;;;;3.15;0.95;;;12.40;99.90;;;;;;5128811;27;20082;-71
2023/10/17 13:40:01;;;;;;;4.95;1.02;;;12.30;99.90;;;;;;5128963;27;20084;-71
2023/10/17 13:42:27;;;;;;;2.80;1.02;;;12.40;99.90;;;;;;5127922;28;20047;-71
2023/10/17 13:44:54;;;;;;;2.95;0.98;;;12.30;99.90;;;;;;5128921;27;20043;-71
2023/10/17 13:47:20;;;;;;;1.75;0.90;;;12.40;99.90;;;;;;5128937;27;20044;-71
2023/10/17 13:49:46;;;;;;;3.33;1.13;;;12.40;99.90;;;;;;5114839;28;20123;-71
2023/10/17 13:52:17;;;;;;;3.70;1.00;;;12.30;99.90;;;;;;5114888;28;20119;-71
2023/10/17 13:54:44;;;;;;;2.50;0.77;;;12.30;99.90;;;;;;5114175;28;20039;-71
2023/10/17 13:57:09;;;;;;;3.00;1.30;;;12.30;99.90;;;;;;5115278;28;20111;-71
2023/10/17 13:59:38;;;;;;;1.52;0.45;;;12.50;99.90;;;;;;5114758;28;20076;-71
2023/10/17 14:02:07;;;;;;;3.72;0.80;;;12.70;99.90;;;;;;5104155;28;20028;-71
2023/10/17 14:04:37;;;;;;;2.72;1.08;;;12.80;99.90;;;;;;5114646;28;20092;-72
2023/10/17 14:07:04;;;;;;;3.10;0.70;;;12.90;99.90;;;;;;5115187;28;20046;-72
2023/10/17 14:09:30;;;;;;;2.30;0.75;;;13.00;99.90;;;;;;5114987;28;20065;-72
2023/10/17 14:11:56;;;;;;;3.33;0.75;;;13.10;99.70;;;;;;5108140;28;20051;-72
2023/10/17 14:14:25;;;;;;;1.38;0.60;;;13.10;99.00;;;;;;5103519;27;20418;-71
2023/10/17 14:16:51;;;;;;;3.58;0.90;;;13.10;99.10;;;;;;5103653;28;20081;-72
2023/10/17 14:19:37;;;;;;;5.43;1.00;;;13.10;98.60;;;;;;5095141;28;20047;-72
2023/10/17 14:24:50;;;;;;;2.35;0.93;;;12.90;98.90;;;;;;5114209;28;20112;-72
2023/10/17 14:27:20;;;;;;;1.85;0.63;;;12.90;99.10;;;;;;5114412;28;20523;-71
2023/10/17 14:29:49;;;;;;;2.97;0.80;;;13.00;99.80;;;;;;5122038;22;20055;-74
2023/10/17 14:32:17;;;;;;;4.28;1.17;;;12.90;99.70;;;;;;5097537;28;20507;-74
2023/10/17 14:34:43;;;;;;;3.60;0.80;;;12.90;99.60;;;;;;5077123;28;20445;-75
2023/10/17 14:37:10;;;;;;;2.45;0.75;;;12.90;99.90;;;;;;5096059;28;20048;-75
2023/10/17 14:39:36;;;;;;;1.90;0.77;;;12.80;99.90;;;;;;5109526;28;20061;-75
2023/10/17 14:42:03;;;;;;;1.83;0.63;;;12.90;99.90;;;;;;5099714;28;20046;-74
2023/10/17 14:44:29;;;;;;;1.35;0.68;;;12.90;99.70;;;;;;5118613;28;20043;-75
2023/10/17 14:46:57;;;;;;;2.60;0.52;;;12.90;99.60;;;;;;5118995;28;20145;-75
2023/10/17 14:49:24;;;;;;;2.60;0.70;;;12.90;99.60;;;;;;5098242;28;20153;-75
2023/10/17 14:51:50;;;;;;;6.38;0.95;;;12.80;99.90;;;;;;5079739;28;20066;-76
2023/10/17 14:54:16;;;;;;;1.83;1.08;;;12.80;99.90;;;;;;5097446;28;20047;-77
2023/10/17 14:56:42;;;;;;;1.08;0.50;;;12.80;99.90;;;;;;5098222;28;20047;-76
2023/10/17 14:59:08;;;;;;;2.45;0.82;;;12.80;99.90;;;;;;5117827;28;20089;-76
2023/10/17 15:01:35;;;;;;;7.03;0.98;;;12.70;99.90;;;;;;5117348;28;20039;-74
2023/10/17 15:04:02;;;;;;;2.80;1.00;;;12.70;99.90;;;;;;5100555;28;20406;-75
2023/10/17 15:06:29;;;;;;;2.65;0.50;;;12.60;99.90;;;;;;5083145;28;20061;-76
2023/10/17 15:08:54;;;;;;;1.67;0.85;;;12.60;99.90;;;;;;5115571;28;20042;-77